createdAt,value
2016-03-08T00:00:33.406Z,996.56
2016-03-08T00:01:33.425Z,996.58
2016-03-08T00:02:33.442Z,996.61
2016-03-08T00:03:33.462Z,996.56
2016-03-08T00:04:33.480Z,996.58
2016-03-08T00:05:33.498Z,996.6
2016-03-08T00:06:33.517Z,996.64
2016-03-08T00:07:33.519Z,996.63
2016-03-08T00:08:33.538Z,996.62
2016-03-08T00:09:33.555Z,996.64
2016-03-08T00:10:33.574Z,996.66
2016-03-08T00:11:33.592Z,996.69
2016-03-08T00:12:33.611Z,996.65
2016-03-08T00:13:33.629Z,996.71
2016-03-08T00:14:33.647Z,996.7
2016-03-08T00:15:33.649Z,996.7
2016-03-08T00:16:33.669Z,996.73
2016-03-08T00:17:33.687Z,996.74
2016-03-08T00:18:33.704Z,996.75
2016-03-08T00:19:33.723Z,996.8
2016-03-08T00:20:33.741Z,996.8
2016-03-08T00:21:33.760Z,996.83
2016-03-08T00:22:33.779Z,996.8
2016-03-08T00:23:33.781Z,996.83
2016-03-08T00:24:33.798Z,996.84
2016-03-08T00:25:33.818Z,996.84
2016-03-08T00:26:33.851Z,996.84
2016-03-08T00:27:33.853Z,996.81
2016-03-08T00:28:33.873Z,996.86
2016-03-08T00:29:33.890Z,996.9
2016-03-08T00:30:33.909Z,996.89
2016-03-08T00:31:33.928Z,996.94
2016-03-08T00:32:33.930Z,996.99
2016-03-08T00:33:33.948Z,996.91
2016-03-08T00:34:33.967Z,996.92
2016-03-08T00:35:33.985Z,996.97
2016-03-08T00:36:34.003Z,996.96
2016-03-08T00:37:34.022Z,996.97
2016-03-08T00:38:34.040Z,996.98
2016-03-08T00:39:34.042Z,996.95
2016-03-08T00:40:34.061Z,996.96
2016-03-08T00:41:34.079Z,996.94
2016-03-08T00:42:34.097Z,996.97
2016-03-08T00:43:34.116Z,997
2016-03-08T00:44:34.134Z,997.02
2016-03-08T00:45:34.152Z,997.03
2016-03-08T00:46:34.170Z,997
2016-03-08T00:47:34.174Z,997.04
2016-03-08T00:48:34.191Z,997.03
2016-03-08T00:49:34.210Z,997.07
2016-03-08T00:50:34.229Z,997.04
2016-03-08T00:51:34.246Z,997.11
2016-03-08T00:52:34.281Z,997.1
2016-03-08T00:53:34.284Z,997.06
2016-03-08T00:54:34.286Z,997.08
2016-03-08T00:55:34.304Z,997.05
2016-03-08T00:56:34.323Z,997.09
2016-03-08T00:57:34.340Z,997.08
2016-03-08T00:58:34.360Z,997.09
2016-03-08T00:59:34.378Z,997.1
2016-03-08T01:00:34.381Z,997.07
2016-03-08T01:01:34.398Z,997.1
2016-03-08T01:02:34.417Z,997.15
2016-03-08T01:03:34.436Z,997.12
2016-03-08T01:04:34.453Z,997.09
2016-03-08T01:05:34.472Z,997.12
2016-03-08T01:06:34.490Z,997.12
2016-03-08T01:07:34.492Z,997.09
2016-03-08T01:08:34.511Z,997.14
2016-03-08T01:09:34.523Z,997.14
2016-03-08T01:10:34.528Z,997.19
2016-03-08T01:11:34.535Z,997.1
2016-03-08T01:12:34.541Z,997.11
2016-03-08T01:13:34.546Z,997.12
2016-03-08T01:14:34.557Z,997.17
2016-03-08T01:15:34.571Z,997.14
2016-03-08T01:16:34.570Z,997.16
2016-03-08T01:17:34.584Z,997.16
2016-03-08T01:18:34.598Z,997.15
2016-03-08T01:19:34.629Z,997.18
2016-03-08T01:20:34.631Z,997.21
2016-03-08T01:21:34.632Z,997.21
2016-03-08T01:22:34.649Z,997.21
2016-03-08T01:23:34.664Z,997.23
2016-03-08T01:24:34.683Z,997.18
2016-03-08T01:25:34.699Z,997.19
2016-03-08T01:26:34.718Z,997.25
2016-03-08T01:27:34.735Z,997.23
2016-03-08T01:28:34.752Z,997.2
2016-03-08T01:29:34.754Z,997.23
2016-03-08T01:30:34.773Z,997.25
2016-03-08T01:31:34.806Z,997.26
2016-03-08T01:32:34.808Z,997.28
2016-03-08T01:33:34.827Z,997.26
2016-03-08T01:34:34.844Z,997.25
2016-03-08T01:35:34.846Z,997.26
2016-03-08T01:36:34.866Z,997.27
2016-03-08T01:37:34.899Z,997.27
2016-03-08T01:38:34.901Z,997.26
2016-03-08T01:39:34.921Z,997.3
2016-03-08T01:40:34.939Z,997.33
2016-03-08T01:41:34.957Z,997.33
2016-03-08T01:42:34.959Z,997.31
2016-03-08T01:43:34.978Z,997.32
2016-03-08T01:44:34.996Z,997.37
2016-03-08T01:45:35.015Z,997.32
2016-03-08T01:46:35.033Z,997.39
2016-03-08T01:47:35.051Z,997.37
2016-03-08T01:48:35.053Z,997.39
2016-03-08T01:49:35.073Z,997.42
2016-03-08T01:50:35.091Z,997.41
2016-03-08T01:51:35.108Z,997.41
2016-03-08T01:52:35.127Z,997.42
2016-03-08T01:53:35.145Z,997.4
2016-03-08T01:54:35.147Z,997.42
2016-03-08T01:55:35.167Z,997.39
2016-03-08T01:56:35.185Z,997.42
2016-03-08T01:57:35.202Z,997.4
2016-03-08T01:58:35.222Z,997.39
2016-03-08T01:59:35.240Z,997.38
2016-03-08T02:00:35.258Z,997.4
2016-03-08T02:01:35.260Z,997.38
2016-03-08T02:02:35.294Z,997.34
2016-03-08T02:03:35.297Z,997.34
2016-03-08T02:04:35.316Z,997.36
2016-03-08T02:05:35.335Z,997.32
2016-03-08T02:06:35.352Z,997.29
2016-03-08T02:07:35.386Z,997.35
2016-03-08T02:08:35.374Z,997.32
2016-03-08T02:09:35.392Z,997.3
2016-03-08T02:10:35.409Z,997.3
2016-03-08T02:11:35.429Z,997.33
2016-03-08T02:12:35.446Z,997.35
2016-03-08T02:13:35.465Z,997.33
2016-03-08T02:14:35.531Z,997.35
2016-03-08T02:15:35.484Z,997.36
2016-03-08T02:16:35.504Z,997.37
2016-03-08T02:17:35.523Z,997.41
2016-03-08T02:18:35.541Z,997.38
2016-03-08T02:19:35.544Z,997.39
2016-03-08T02:20:35.561Z,997.38
2016-03-08T02:21:35.580Z,997.36
2016-03-08T02:22:35.614Z,997.4
2016-03-08T02:23:35.617Z,997.42
2016-03-08T02:24:35.635Z,997.42
2016-03-08T02:25:35.653Z,997.4
2016-03-08T02:26:35.672Z,997.43
2016-03-08T02:27:35.674Z,997.46
2016-03-08T02:28:35.708Z,997.42
2016-03-08T02:29:35.710Z,997.41
2016-03-08T02:30:35.730Z,997.45
2016-03-08T02:31:35.747Z,997.45
2016-03-08T02:32:35.750Z,997.46
2016-03-08T02:33:35.769Z,997.48
2016-03-08T02:34:35.787Z,997.51
2016-03-08T02:35:35.805Z,997.51
2016-03-08T02:36:35.824Z,997.53
2016-03-08T02:37:35.843Z,997.54
2016-03-08T02:38:35.845Z,997.56
2016-03-08T02:39:35.862Z,997.51
2016-03-08T02:40:35.882Z,997.52
2016-03-08T02:41:35.899Z,997.52
2016-03-08T02:42:35.918Z,997.49
2016-03-08T02:43:35.921Z,997.53
2016-03-08T02:44:35.939Z,997.5
2016-03-08T02:45:35.956Z,997.52
2016-03-08T02:46:35.976Z,997.51
2016-03-08T02:47:35.994Z,997.52
2016-03-08T02:48:36.012Z,997.52
2016-03-08T02:49:36.015Z,997.5
2016-03-08T02:50:36.033Z,997.52
2016-03-08T02:51:36.051Z,997.54
2016-03-08T02:52:36.070Z,997.55
2016-03-08T02:53:36.088Z,997.51
2016-03-08T02:54:36.106Z,997.57
2016-03-08T02:55:36.108Z,997.55
2016-03-08T02:56:36.128Z,997.55
2016-03-08T02:57:36.146Z,997.52
2016-03-08T02:58:36.163Z,997.55
2016-03-08T02:59:36.182Z,997.48
2016-03-08T03:00:36.185Z,997.54
2016-03-08T03:01:36.219Z,997.55
2016-03-08T03:02:36.222Z,997.51
2016-03-08T03:03:36.240Z,997.53
2016-03-08T03:04:36.258Z,997.54
2016-03-08T03:05:36.277Z,997.57
2016-03-08T03:06:36.280Z,997.61
2016-03-08T03:07:36.298Z,997.56
2016-03-08T03:08:36.315Z,997.58
2016-03-08T03:09:36.335Z,997.59
2016-03-08T03:10:36.352Z,997.61
2016-03-08T03:11:36.371Z,997.59
2016-03-08T03:12:36.374Z,997.63
2016-03-08T03:13:36.392Z,997.67
2016-03-08T03:14:36.409Z,997.66
2016-03-08T03:15:36.429Z,997.69
2016-03-08T03:16:36.447Z,997.73
2016-03-08T03:17:36.450Z,997.7
2016-03-08T03:18:36.467Z,997.67
2016-03-08T03:19:36.486Z,997.71
2016-03-08T03:20:36.504Z,997.71
2016-03-08T03:21:36.523Z,997.7
2016-03-08T03:22:36.526Z,997.69
2016-03-08T03:23:36.544Z,997.7
2016-03-08T03:24:36.577Z,997.67
2016-03-08T03:25:36.597Z,997.72
2016-03-08T03:26:36.599Z,997.7
2016-03-08T03:27:36.617Z,997.71
2016-03-08T03:28:36.619Z,997.69
2016-03-08T03:29:36.638Z,997.73
2016-03-08T03:30:36.656Z,997.7
2016-03-08T03:31:36.675Z,997.67
2016-03-08T03:32:36.694Z,997.76
2016-03-08T03:33:36.696Z,997.74
2016-03-08T03:34:36.713Z,997.72
2016-03-08T03:35:36.733Z,997.71
2016-03-08T03:36:36.751Z,997.74
2016-03-08T03:37:36.768Z,997.72
2016-03-08T03:38:36.787Z,997.76
2016-03-08T03:39:36.805Z,997.79
2016-03-08T03:40:36.807Z,997.81
2016-03-08T03:41:36.827Z,997.81
2016-03-08T03:42:36.845Z,997.81
2016-03-08T03:43:36.863Z,997.81
2016-03-08T03:44:36.865Z,997.83
2016-03-08T03:45:36.900Z,997.82
2016-03-08T03:46:36.903Z,997.83
2016-03-08T03:47:36.920Z,997.84
2016-03-08T03:48:36.939Z,997.84
2016-03-08T03:49:36.942Z,997.83
2016-03-08T03:50:36.959Z,997.83
2016-03-08T03:51:36.979Z,997.84
2016-03-08T03:52:36.997Z,997.8
2016-03-08T03:53:37.031Z,997.84
2016-03-08T03:54:37.018Z,997.87
2016-03-08T03:55:37.036Z,997.87
2016-03-08T03:56:37.055Z,997.92
2016-03-08T03:57:37.072Z,997.94
2016-03-08T03:58:37.091Z,997.92
2016-03-08T03:59:37.109Z,997.96
2016-03-08T04:00:37.111Z,997.97
2016-03-08T04:01:37.131Z,997.98
2016-03-08T04:02:37.149Z,997.97
2016-03-08T04:03:37.166Z,997.99
2016-03-08T04:04:37.185Z,997.96
2016-03-08T04:05:37.188Z,997.95
2016-03-08T04:06:37.201Z,997.99
2016-03-08T04:07:37.218Z,997.97
2016-03-08T04:08:37.237Z,997.97
2016-03-08T04:09:37.256Z,998.01
2016-03-08T04:10:37.273Z,998
2016-03-08T04:11:37.292Z,998.06
2016-03-08T04:12:37.310Z,998.04
2016-03-08T04:13:37.312Z,998.04
2016-03-08T04:14:37.332Z,998.05
2016-03-08T04:15:37.350Z,998.07
2016-03-08T04:16:37.353Z,998.1
2016-03-08T04:17:37.370Z,998.07
2016-03-08T04:18:37.389Z,998.07
2016-03-08T04:19:37.407Z,998.06
2016-03-08T04:20:37.425Z,998.08
2016-03-08T04:21:37.427Z,998.04
2016-03-08T04:22:37.461Z,998.11
2016-03-08T04:23:37.464Z,998.1
2016-03-08T04:24:37.483Z,998.12
2016-03-08T04:25:37.502Z,998.15
2016-03-08T04:26:37.504Z,998.18
2016-03-08T04:27:37.522Z,998.18
2016-03-08T04:28:37.541Z,998.19
2016-03-08T04:29:37.559Z,998.24
2016-03-08T04:30:37.577Z,998.23
2016-03-08T04:31:37.579Z,998.24
2016-03-08T04:32:37.599Z,998.29
2016-03-08T04:33:37.616Z,998.26
2016-03-08T04:34:37.635Z,998.26
2016-03-08T04:35:37.638Z,998.35
2016-03-08T04:36:37.656Z,998.36
2016-03-08T04:37:37.674Z,998.39
2016-03-08T04:38:37.693Z,998.39
2016-03-08T04:39:37.711Z,998.43
2016-03-08T04:40:37.729Z,998.39
2016-03-08T04:41:37.731Z,998.39
2016-03-08T04:42:37.751Z,998.45
2016-03-08T04:43:37.768Z,998.45
2016-03-08T04:44:37.787Z,998.44
2016-03-08T04:45:37.790Z,998.49
2016-03-08T04:46:37.808Z,998.5
2016-03-08T04:47:37.826Z,998.51
2016-03-08T04:48:37.845Z,998.49
2016-03-08T04:49:37.848Z,998.47
2016-03-08T04:50:37.866Z,998.48
2016-03-08T04:51:37.883Z,998.46
2016-03-08T04:52:37.902Z,998.5
2016-03-08T04:53:37.920Z,998.51
2016-03-08T04:54:37.922Z,998.52
2016-03-08T04:55:37.942Z,998.51
2016-03-08T04:56:37.960Z,998.58
2016-03-08T04:57:37.977Z,998.56
2016-03-08T04:58:37.996Z,998.56
2016-03-08T04:59:38.015Z,998.59
2016-03-08T05:00:38.018Z,998.59
2016-03-08T05:01:38.035Z,998.64
2016-03-08T05:02:38.054Z,998.61
2016-03-08T05:03:38.057Z,998.62
2016-03-08T05:04:38.074Z,998.67
2016-03-08T05:05:38.094Z,998.62
2016-03-08T05:06:38.112Z,998.64
2016-03-08T05:07:38.130Z,998.69
2016-03-08T05:08:38.132Z,998.69
2016-03-08T05:09:38.151Z,998.7
2016-03-08T05:10:38.170Z,998.74
2016-03-08T05:11:38.187Z,998.72
2016-03-08T05:12:38.206Z,998.76
2016-03-08T05:13:38.224Z,998.78
2016-03-08T05:14:38.226Z,998.76
2016-03-08T05:15:38.246Z,998.79
2016-03-08T05:16:38.264Z,998.78
2016-03-08T05:17:38.282Z,998.79
2016-03-08T05:18:38.284Z,998.85
2016-03-08T05:19:38.303Z,998.85
2016-03-08T05:20:38.321Z,998.89
2016-03-08T05:21:38.324Z,998.85
2016-03-08T05:22:38.341Z,998.91
2016-03-08T05:23:38.361Z,998.88
2016-03-08T05:24:38.378Z,998.92
2016-03-08T05:25:38.397Z,998.87
2016-03-08T05:26:38.400Z,998.91
2016-03-08T05:27:38.418Z,998.94
2016-03-08T05:28:38.436Z,998.95
2016-03-08T05:29:38.454Z,998.97
2016-03-08T05:30:38.458Z,998.99
2016-03-08T05:31:38.476Z,998.94
2016-03-08T05:32:38.493Z,998.94
2016-03-08T05:33:38.525Z,999
2016-03-08T05:34:38.508Z,999.01
2016-03-08T05:35:38.524Z,998.98
2016-03-08T05:36:38.541Z,998.98
2016-03-08T05:37:38.605Z,999.06
2016-03-08T05:38:38.581Z,999
2016-03-08T05:39:38.583Z,999.06
2016-03-08T05:40:38.601Z,999.07
2016-03-08T05:41:38.619Z,999.02
2016-03-08T05:42:38.623Z,999.06
2016-03-08T05:43:38.640Z,999.08
2016-03-08T05:44:38.659Z,999.07
2016-03-08T05:45:38.662Z,999.1
2016-03-08T05:46:38.680Z,999.09
2016-03-08T05:47:38.698Z,999.1
2016-03-08T05:48:38.717Z,999.15
2016-03-08T05:49:38.727Z,999.15
2016-03-08T05:50:38.744Z,999.15
2016-03-08T05:51:38.763Z,999.19
2016-03-08T05:52:38.766Z,999.2
2016-03-08T05:53:38.784Z,999.21
2016-03-08T05:54:38.802Z,999.3
2016-03-08T05:55:38.821Z,999.31
2016-03-08T05:56:40.776Z,999.27
2016-03-08T05:57:38.841Z,999.3
2016-03-08T05:58:38.860Z,999.27
2016-03-08T05:59:38.878Z,999.27
2016-03-08T06:00:38.881Z,999.34
2016-03-08T06:01:38.898Z,999.31
2016-03-08T06:02:38.918Z,999.28
2016-03-08T06:03:38.936Z,999.33
2016-03-08T06:04:38.939Z,999.34
2016-03-08T06:05:38.956Z,999.37
2016-03-08T06:06:38.965Z,999.38
2016-03-08T06:07:38.983Z,999.36
2016-03-08T06:08:39.000Z,999.37
2016-03-08T06:09:39.019Z,999.38
2016-03-08T06:10:39.022Z,999.41
2016-03-08T06:11:39.041Z,999.43
2016-03-08T06:12:39.058Z,999.4
2016-03-08T06:13:39.077Z,999.45
2016-03-08T06:14:39.080Z,999.47
2016-03-08T06:15:39.097Z,999.48
2016-03-08T06:16:39.117Z,999.49
2016-03-08T06:17:39.119Z,999.48
2016-03-08T06:18:39.138Z,999.52
2016-03-08T06:19:39.155Z,999.57
2016-03-08T06:20:39.174Z,999.56
2016-03-08T06:21:39.177Z,999.56
2016-03-08T06:22:39.195Z,999.63
2016-03-08T06:23:39.213Z,999.62
2016-03-08T06:24:39.232Z,999.71
2016-03-08T06:25:39.250Z,999.71
2016-03-08T06:26:39.252Z,999.67
2016-03-08T06:27:39.271Z,999.7
2016-03-08T06:28:39.289Z,999.73
2016-03-08T06:29:39.307Z,999.72
2016-03-08T06:30:39.309Z,999.74
2016-03-08T06:31:39.329Z,999.79
2016-03-08T06:32:39.347Z,999.82
2016-03-08T06:33:39.365Z,999.82
2016-03-08T06:34:39.367Z,999.88
2016-03-08T06:35:39.386Z,999.89
2016-03-08T06:36:39.404Z,999.88
2016-03-08T06:37:39.422Z,999.92
2016-03-08T06:38:39.426Z,999.94
2016-03-08T06:39:39.444Z,999.95
2016-03-08T06:40:39.461Z,999.96
2016-03-08T06:41:39.480Z,999.98
2016-03-08T06:42:39.483Z,1000.03
2016-03-08T06:43:39.502Z,999.99
2016-03-08T06:44:39.519Z,1000.02
2016-03-08T06:45:39.522Z,1000.02
2016-03-08T06:46:39.556Z,1000.02
2016-03-08T06:47:39.558Z,1000
2016-03-08T06:48:39.578Z,999.98
2016-03-08T06:49:39.580Z,1000.01
2016-03-08T06:50:39.599Z,1000.01
2016-03-08T06:51:39.616Z,1000.06
2016-03-08T06:52:39.635Z,1000.05
2016-03-08T06:53:39.638Z,1000.09
2016-03-08T06:54:39.656Z,1000.12
2016-03-08T06:55:39.674Z,1000.16
2016-03-08T06:56:39.693Z,1000.15
2016-03-08T06:57:39.696Z,1000.22
2016-03-08T06:58:39.729Z,1000.22
2016-03-08T06:59:39.732Z,1000.24
2016-03-08T07:00:39.751Z,1000.22
2016-03-08T07:01:39.768Z,1000.22
2016-03-08T07:02:39.770Z,1000.26
2016-03-08T07:03:39.790Z,1000.26
2016-03-08T07:04:39.808Z,1000.35
2016-03-08T07:05:39.825Z,1000.36
2016-03-08T07:06:39.828Z,1000.34
2016-03-08T07:07:39.847Z,1000.34
2016-03-08T07:08:39.881Z,1000.36
2016-03-08T07:09:39.884Z,1000.39
2016-03-08T07:10:39.887Z,1000.39
2016-03-08T07:11:39.905Z,1000.4
2016-03-08T07:12:39.922Z,1000.38
2016-03-08T07:13:39.941Z,1000.43
2016-03-08T07:14:39.960Z,1000.39
2016-03-08T07:15:39.963Z,1000.46
2016-03-08T07:16:39.980Z,1000.45
2016-03-08T07:17:39.999Z,1000.42
2016-03-08T07:18:40.002Z,1000.51
2016-03-08T07:19:40.035Z,1000.48
2016-03-08T07:20:40.039Z,1000.52
2016-03-08T07:21:40.057Z,1000.53
2016-03-08T07:22:40.060Z,1000.54
2016-03-08T07:23:40.077Z,1000.54
2016-03-08T07:24:40.096Z,1000.52
2016-03-08T07:25:40.115Z,1000.57
2016-03-08T07:26:40.117Z,1000.57
2016-03-08T07:27:40.135Z,1000.57
2016-03-08T07:28:40.154Z,1000.57
2016-03-08T07:29:40.171Z,1000.63
2016-03-08T07:30:40.174Z,1000.62
2016-03-08T07:31:40.193Z,1000.65
2016-03-08T07:32:40.212Z,1000.64
2016-03-08T07:33:40.229Z,1000.66
2016-03-08T07:34:40.248Z,1000.66
2016-03-08T07:35:40.251Z,1000.68
2016-03-08T07:36:40.269Z,1000.68
2016-03-08T07:37:40.286Z,1000.71
2016-03-08T07:38:40.289Z,1000.69
2016-03-08T07:39:40.323Z,1000.69
2016-03-08T07:40:40.326Z,1000.72
2016-03-08T07:41:40.345Z,1000.7
2016-03-08T07:42:40.348Z,1000.72
2016-03-08T07:43:40.381Z,1000.73
2016-03-08T07:44:40.383Z,1000.69
2016-03-08T07:45:40.403Z,1000.71
2016-03-08T07:46:40.421Z,1000.73
2016-03-08T07:47:40.439Z,1000.74
2016-03-08T07:48:40.441Z,1000.72
2016-03-08T07:49:40.460Z,1000.75
2016-03-08T07:50:40.478Z,1000.73
2016-03-08T07:51:40.480Z,1000.7
2016-03-08T07:52:40.500Z,1000.7
2016-03-08T07:53:40.518Z,1000.75
2016-03-08T07:54:40.536Z,1000.74
2016-03-08T07:55:40.554Z,1000.75
2016-03-08T07:56:40.557Z,1000.77
2016-03-08T07:57:40.576Z,1000.84
2016-03-08T07:58:40.593Z,1000.82
2016-03-08T07:59:40.610Z,1000.83
2016-03-08T08:00:40.629Z,1000.86
2016-03-08T08:01:40.646Z,1000.94
2016-03-08T08:02:40.649Z,1000.97
2016-03-08T08:03:40.668Z,1001
2016-03-08T08:04:40.685Z,1001.02
2016-03-08T08:05:40.688Z,1001.05
2016-03-08T08:06:40.707Z,1001.09
2016-03-08T08:07:40.726Z,1001.08
2016-03-08T08:08:40.743Z,1001.1
2016-03-08T08:09:40.762Z,1001.13
2016-03-08T08:10:40.765Z,1001.1
2016-03-08T08:11:40.783Z,1001.15
2016-03-08T08:12:40.800Z,1001.11
2016-03-08T08:13:40.820Z,1001.14
2016-03-08T08:14:40.822Z,1001.14
2016-03-08T08:15:40.840Z,1001.18
2016-03-08T08:16:40.859Z,1001.16
2016-03-08T08:17:40.877Z,1001.19
2016-03-08T08:18:40.895Z,1001.17
2016-03-08T08:19:40.913Z,1001.24
2016-03-08T08:20:40.917Z,1001.22
2016-03-08T08:21:40.935Z,1001.21
2016-03-08T08:22:40.952Z,1001.23
2016-03-08T08:23:40.971Z,1001.21
2016-03-08T08:24:40.974Z,1001.25
2016-03-08T08:25:41.008Z,1001.24
2016-03-08T08:26:41.011Z,1001.21
2016-03-08T08:27:41.029Z,1001.25
2016-03-08T08:28:41.032Z,1001.23
2016-03-08T08:29:41.066Z,1001.25
2016-03-08T08:30:41.084Z,1001.24
2016-03-08T08:31:41.087Z,1001.23
2016-03-08T08:32:41.105Z,1001.27
2016-03-08T08:33:41.123Z,1001.27
2016-03-08T08:34:41.126Z,1001.2
2016-03-08T08:35:41.144Z,1001.22
2016-03-08T08:36:41.162Z,1001.23
2016-03-08T08:37:41.181Z,1001.23
2016-03-08T08:38:41.184Z,1001.25
2016-03-08T08:39:41.202Z,1001.24
2016-03-08T08:40:41.221Z,1001.25
2016-03-08T08:41:41.239Z,1001.22
2016-03-08T08:42:41.257Z,1001.24
2016-03-08T08:43:41.259Z,1001.22
2016-03-08T08:44:41.278Z,1001.22
2016-03-08T08:45:41.295Z,1001.24
2016-03-08T08:46:41.314Z,1001.25
2016-03-08T08:47:41.317Z,1001.22
2016-03-08T08:48:41.335Z,1001.26
2016-03-08T08:49:41.353Z,1001.21
2016-03-08T08:50:41.372Z,1001.27
2016-03-08T08:51:41.391Z,1001.24
2016-03-08T08:52:41.393Z,1001.27
2016-03-08T08:53:41.411Z,1001.29
2016-03-08T08:54:41.430Z,1001.3
2016-03-08T08:55:41.448Z,1001.32
2016-03-08T08:56:41.450Z,1001.31
2016-03-08T08:57:41.469Z,1001.31
2016-03-08T08:58:41.488Z,1001.34
2016-03-08T08:59:41.505Z,1001.36
2016-03-08T09:00:41.508Z,1001.33
2016-03-08T09:01:41.527Z,1001.35
2016-03-08T09:02:41.545Z,1001.37
2016-03-08T09:03:41.563Z,1001.4
2016-03-08T09:04:41.581Z,1001.33
2016-03-08T09:05:41.585Z,1001.36
2016-03-08T09:06:41.618Z,1001.39
2016-03-08T09:07:41.621Z,1001.43
2016-03-08T09:08:41.640Z,1001.35
2016-03-08T09:09:41.642Z,1001.37
2016-03-08T09:10:41.676Z,1001.36
2016-03-08T09:11:41.679Z,1001.38
2016-03-08T09:12:41.697Z,1001.38
2016-03-08T09:13:41.706Z,1001.42
2016-03-08T09:14:41.725Z,1001.41
2016-03-08T09:15:41.744Z,1001.4
2016-03-08T09:16:41.761Z,1001.42
2016-03-08T09:17:41.763Z,1001.45
2016-03-08T09:18:41.783Z,1001.46
2016-03-08T09:19:41.800Z,1001.41
2016-03-08T09:20:41.819Z,1001.47
2016-03-08T09:21:41.838Z,1001.5
2016-03-08T09:22:41.840Z,1001.5
2016-03-08T09:23:41.858Z,1001.49
2016-03-08T09:24:41.877Z,1001.46
2016-03-08T09:25:41.896Z,1001.52
2016-03-08T09:26:41.913Z,1001.52
2016-03-08T09:27:41.916Z,1001.51
2016-03-08T09:28:41.935Z,1001.5
2016-03-08T09:29:41.952Z,1001.52
2016-03-08T09:30:41.971Z,1001.51
2016-03-08T09:31:41.989Z,1001.52
2016-03-08T09:32:42.007Z,1001.51
2016-03-08T09:33:42.009Z,1001.5
2016-03-08T09:34:42.029Z,1001.53
2016-03-08T09:35:42.047Z,1001.55
2016-03-08T09:36:42.064Z,1001.51
2016-03-08T09:37:42.083Z,1001.54
2016-03-08T09:38:42.101Z,1001.54
2016-03-08T09:39:42.104Z,1001.54
2016-03-08T09:40:42.123Z,1001.56
2016-03-08T09:41:42.141Z,1001.56
2016-03-08T09:42:42.159Z,1001.54
2016-03-08T09:43:42.161Z,1001.56
2016-03-08T09:44:42.197Z,1001.58
2016-03-08T09:45:42.199Z,1001.57
2016-03-08T09:46:42.216Z,1001.59
2016-03-08T09:47:42.236Z,1001.58
2016-03-08T09:48:42.253Z,1001.57
2016-03-08T09:49:42.272Z,1001.6
2016-03-08T09:50:42.275Z,1001.66
2016-03-08T09:51:42.293Z,1001.65
2016-03-08T09:52:42.311Z,1001.65
2016-03-08T09:53:42.329Z,1001.62
2016-03-08T09:54:42.348Z,1001.63
2016-03-08T09:55:42.351Z,1001.64
2016-03-08T09:56:42.368Z,1001.65
2016-03-08T09:57:42.387Z,1001.61
2016-03-08T09:58:42.405Z,1001.61
2016-03-08T09:59:42.424Z,1001.65
2016-03-08T10:00:42.442Z,1001.62
2016-03-08T10:01:42.460Z,1001.65
2016-03-08T10:02:42.462Z,1001.67
2016-03-08T10:03:42.482Z,1001.68
2016-03-08T10:04:42.500Z,1001.69
2016-03-08T10:05:42.518Z,1001.72
2016-03-08T10:06:42.538Z,1001.69
2016-03-08T10:07:42.555Z,1001.74
2016-03-08T10:08:42.558Z,1001.76
2016-03-08T10:09:42.577Z,1001.75
2016-03-08T10:10:42.595Z,1001.75
2016-03-08T10:11:42.613Z,1001.75
2016-03-08T10:12:42.632Z,1001.74
2016-03-08T10:13:42.650Z,1001.77
2016-03-08T10:14:42.653Z,1001.76
2016-03-08T10:15:42.664Z,1001.75
2016-03-08T10:16:42.674Z,1001.78
2016-03-08T10:17:42.681Z,1001.76
2016-03-08T10:18:42.690Z,1001.8
2016-03-08T10:19:42.699Z,1001.79
2016-03-08T10:20:42.710Z,1001.8
2016-03-08T10:21:42.710Z,1001.83
2016-03-08T10:22:42.725Z,1001.82
2016-03-08T10:23:42.739Z,1001.82
2016-03-08T10:24:42.754Z,1001.81
2016-03-08T10:25:42.771Z,1001.82
2016-03-08T10:26:42.787Z,1001.84
2016-03-08T10:27:42.805Z,1001.83
2016-03-08T10:28:42.823Z,1001.8
2016-03-08T10:29:42.824Z,1001.83
2016-03-08T10:30:42.841Z,1001.83
2016-03-08T10:31:42.859Z,1001.83
2016-03-08T10:32:42.877Z,1001.83
2016-03-08T10:33:42.894Z,1001.79
2016-03-08T10:34:42.913Z,1001.83
2016-03-08T10:35:42.915Z,1001.78
2016-03-08T10:36:42.949Z,1001.79
2016-03-08T10:37:42.951Z,1001.79
2016-03-08T10:38:42.969Z,1001.83
2016-03-08T10:39:42.986Z,1001.84
2016-03-08T10:40:43.021Z,1001.8
2016-03-08T10:41:43.024Z,1001.84
2016-03-08T10:42:43.041Z,1001.86
2016-03-08T10:43:43.060Z,1001.85
2016-03-08T10:44:43.078Z,1001.85
2016-03-08T10:45:43.096Z,1001.84
2016-03-08T10:46:43.100Z,1001.88
2016-03-08T10:47:43.118Z,1001.84
2016-03-08T10:48:43.135Z,1001.86
2016-03-08T10:49:43.155Z,1001.88
2016-03-08T10:50:43.173Z,1001.89
2016-03-08T10:51:43.190Z,1001.85
2016-03-08T10:52:43.210Z,1001.89
2016-03-08T10:53:43.227Z,1001.88
2016-03-08T10:54:43.246Z,1001.93
2016-03-08T10:55:43.265Z,1001.9
2016-03-08T10:56:43.267Z,1001.88
2016-03-08T10:57:43.284Z,1001.91
2016-03-08T10:58:43.304Z,1001.91
2016-03-08T10:59:43.322Z,1001.91
2016-03-08T11:00:43.339Z,1001.94
2016-03-08T11:01:43.359Z,1001.95
2016-03-08T11:02:43.376Z,1001.97
2016-03-08T11:03:43.395Z,1001.95
2016-03-08T11:04:43.414Z,1001.95
2016-03-08T11:05:43.416Z,1001.97
2016-03-08T11:06:43.450Z,1001.97
2016-03-08T11:07:43.469Z,1001.96
2016-03-08T11:08:43.471Z,1001.97
2016-03-08T11:09:43.489Z,1001.98
2016-03-08T11:10:43.508Z,1002
2016-03-08T11:11:43.525Z,1001.98
2016-03-08T11:12:43.545Z,1002.03
2016-03-08T11:13:43.563Z,1002.01
2016-03-08T11:14:43.580Z,1002.03
2016-03-08T11:15:43.616Z,1001.99
2016-03-08T11:16:43.618Z,1002.05
2016-03-08T11:17:43.635Z,1002.04
2016-03-08T11:18:43.654Z,1002.09
2016-03-08T11:19:43.672Z,1002.07
2016-03-08T11:20:43.691Z,1002.11
2016-03-08T11:21:43.709Z,1002.05
2016-03-08T11:22:43.727Z,1002.09
2016-03-08T11:23:43.745Z,1002.07
2016-03-08T11:24:43.764Z,1002.09
2016-03-08T11:25:43.782Z,1002.06
2016-03-08T11:26:43.784Z,1002.07
2016-03-08T11:27:43.804Z,1002.1
2016-03-08T11:28:43.821Z,1002.09
2016-03-08T11:29:43.840Z,1002.09
2016-03-08T11:30:43.859Z,1002.07
2016-03-08T11:31:43.876Z,1002.09
2016-03-08T11:32:43.911Z,1002.09
2016-03-08T11:33:43.914Z,1002.08
2016-03-08T11:34:43.947Z,1002.1
2016-03-08T11:35:43.950Z,1002.11
2016-03-08T11:36:43.967Z,1002.1
2016-03-08T11:37:44.003Z,1002.1
2016-03-08T11:38:44.005Z,1002.08
2016-03-08T11:39:44.022Z,1002.08
2016-03-08T11:40:44.058Z,1002.09
2016-03-08T11:41:44.060Z,1002.04
2016-03-08T11:42:44.093Z,1002.07
2016-03-08T11:43:44.097Z,1002.04
2016-03-08T11:44:44.131Z,1002.09
2016-03-08T11:45:44.149Z,1002.07
2016-03-08T11:46:44.167Z,1002.07
2016-03-08T11:47:44.186Z,1002.08
2016-03-08T11:48:44.204Z,1002.11
2016-03-08T11:49:44.221Z,1002.14
2016-03-08T11:50:44.240Z,1002.09
2016-03-08T11:51:44.274Z,1002.1
2016-03-08T11:52:44.276Z,1002.07
2016-03-08T11:53:44.295Z,1002.08
2016-03-08T11:54:44.313Z,1002.09
2016-03-08T11:55:44.332Z,1002.06
2016-03-08T11:56:44.350Z,1002.07
2016-03-08T11:57:44.384Z,1002.06
2016-03-08T11:58:44.387Z,1002.06
2016-03-08T11:59:44.404Z,1002.05
2016-03-08T12:00:44.424Z,1002.05
2016-03-08T12:01:44.442Z,1002.08
2016-03-08T12:02:44.459Z,1002.05
2016-03-08T12:03:44.479Z,1002.07
2016-03-08T12:04:44.497Z,1002.08
2016-03-08T12:05:44.516Z,1002.1
2016-03-08T12:06:44.535Z,1002.09
2016-03-08T12:07:44.553Z,1002.08
2016-03-08T12:08:44.588Z,1002.08
2016-03-08T12:09:44.605Z,1002.06
2016-03-08T12:10:44.624Z,1002.08
2016-03-08T12:11:44.643Z,1002.07
2016-03-08T12:12:44.660Z,1002.05
2016-03-08T12:13:44.679Z,1002.08
2016-03-08T12:14:44.697Z,1002.1
2016-03-08T12:15:44.716Z,1002.12
2016-03-08T12:16:44.734Z,1002.12
2016-03-08T12:17:44.752Z,1002.11
2016-03-08T12:18:44.771Z,1002.1
2016-03-08T12:19:44.804Z,1002.1
2016-03-08T12:20:44.806Z,1002.09